Thornhill, Canada
Current Conditions -  °F | °C
As of 8:00 PM on Monday 22 Dec 2014 (Local Time) from CYKZ Reporting Station
Overcast Overcast  
Wind Chill: 23°   Ceiling: 23000
Heat Index: 30°   Visibility: 8mi
Dew Point: 27°   Wind: 7mph
Humidity: 86%   Direction: 90°E
Pressure: 30.07"   Gusts: NA
Location:  43.8°N, 79.42°W
Report Text: CYKZ 230100Z 09006KT 8SM OVC230 M01/M03 A3007 RMK CS8 SLP191
Loading
Personal Weather Stations






























Interactive Weather Map New forecast layout! Learn more

10-Day Weather Forecast

Advertisements
Track Severe Weather on mobile